Time;durP1;ratioP1;P1;durP2;ratioP2;P2;SDS_P1;SDS_P2;PMS_P1;PMS_P2;Temp;Humidity;BMP_temperature;BMP_pressure;BME280_temperature;BME280_humidity;BME280_pressure;Samples;Min_cycle;Max_cycle;Signal;HPM_P1;HPM_P2
2023/04/09 00:01:56;;;;;;;61.08;40.67;;;9.10;99.90;;;;;;5138772;27;20038;-66
2023/04/09 00:04:22;;;;;;;57.90;39.97;;;9.10;99.90;;;;;;5108051;27;20062;-66
2023/04/09 00:06:48;;;;;;;58.03;39.80;;;9.10;99.90;;;;;;5131007;27;20123;-67
2023/04/09 00:09:14;;;;;;;56.25;37.30;;;9.10;99.90;;;;;;5112969;27;20077;-63
2023/04/09 00:11:39;;;;;;;57.42;39.15;;;9.10;99.90;;;;;;5126751;27;20065;-65
2023/04/09 00:14:05;;;;;;;57.78;40.08;;;9.10;99.90;;;;;;5137786;27;20027;-68
2023/04/09 00:16:31;;;;;;;57.15;36.72;;;9.10;99.90;;;;;;5138278;27;20040;-65
2023/04/09 00:18:56;;;;;;;57.70;38.42;;;9.10;99.90;;;;;;5109068;27;20159;-66
2023/04/09 00:21:22;;;;;;;58.92;40.13;;;9.00;99.90;;;;;;5109272;27;20043;-67
2023/04/09 00:23:48;;;;;;;57.65;38.38;;;9.00;99.90;;;;;;5107450;27;20480;-64
2023/04/09 00:26:14;;;;;;;53.35;37.58;;;9.00;99.90;;;;;;5138758;27;20075;-67
2023/04/09 00:28:40;;;;;;;57.75;37.20;;;9.00;99.90;;;;;;5131574;27;20046;-65
2023/04/09 00:31:05;;;;;;;56.78;38.28;;;9.00;99.90;;;;;;5112450;27;20477;-66
2023/04/09 00:33:31;;;;;;;61.28;39.13;;;9.00;99.90;;;;;;5108911;27;20485;-66
2023/04/09 00:35:57;;;;;;;56.45;39.75;;;9.00;99.90;;;;;;5138286;27;20477;-65
2023/04/09 00:38:22;;;;;;;57.35;38.75;;;9.00;99.90;;;;;;5105893;27;20046;-64
2023/04/09 00:40:49;;;;;;;54.25;36.70;;;9.00;99.90;;;;;;5136415;27;20064;-63
2023/04/09 00:43:16;;;;;;;55.20;38.65;;;9.00;99.90;;;;;;5138519;27;20050;-66
2023/04/09 00:45:43;;;;;;;53.85;38.15;;;9.00;99.90;;;;;;5109011;27;20118;-70
2023/04/09 00:48:09;;;;;;;55.58;37.55;;;8.90;99.90;;;;;;5128004;27;20035;-65
2023/04/09 00:50:35;;;;;;;58.45;38.85;;;8.90;99.90;;;;;;5143003;27;20047;-64
2023/04/09 00:53:01;;;;;;;56.63;38.20;;;9.00;99.90;;;;;;5115154;27;20482;-64
2023/04/09 00:55:27;;;;;;;58.13;39.40;;;8.90;99.90;;;;;;5114228;27;20039;-67
2023/04/09 00:57:53;;;;;;;58.03;37.97;;;8.90;99.90;;;;;;5092159;27;20039;-65
2023/04/09 01:00:19;;;;;;;58.35;38.28;;;8.90;99.90;;;;;;5138223;27;20465;-66
2023/04/09 01:02:45;;;;;;;60.90;41.17;;;8.90;99.90;;;;;;5137250;27;20051;-67
2023/04/09 01:05:12;;;;;;;55.17;38.75;;;8.80;99.90;;;;;;5105679;27;20072;-65
2023/04/09 01:08:02;;;;;;;56.83;38.30;;;8.90;99.90;;;;;;5127410;27;20489;-67
2023/04/09 01:10:36;;;;;;;55.22;37.70;;;8.80;99.90;;;;;;5105300;27;20091;-65
2023/04/09 01:13:38;;;;;;;60.33;38.60;;;8.80;99.90;;;;;;5105787;27;20130;-65
2023/04/09 01:16:05;;;;;;;60.25;39.85;;;8.80;99.90;;;;;;5014409;28;20102;-64
2023/04/09 01:18:45;;;;;;;59.08;38.30;;;8.80;99.90;;;;;;5029926;28;20400;-65
2023/04/09 01:21:18;;;;;;;56.58;37.22;;;8.80;99.90;;;;;;5031087;28;20052;-66
2023/04/09 01:24:02;;;;;;;53.65;36.67;;;8.80;99.90;;;;;;5024198;28;20037;-64
2023/04/09 01:26:56;;;;;;;55.10;36.22;;;8.70;99.90;;;;;;5031413;28;20059;-65
2023/04/09 01:29:24;;;;;;;59.55;36.30;;;8.70;99.90;;;;;;5021236;28;20045;-63
2023/04/09 01:31:52;;;;;;;50.97;34.53;;;8.70;99.90;;;;;;5013325;28;20150;-65
2023/04/09 01:34:20;;;;;;;54.25;33.13;;;8.70;99.90;;;;;;5015761;28;20041;-66
2023/04/09 01:36:51;;;;;;;48.95;32.50;;;8.70;99.90;;;;;;5031012;28;20051;-67
2023/04/09 01:39:17;;;;;;;46.53;29.85;;;8.60;99.90;;;;;;5007339;28;20135;-66
2023/04/09 01:41:43;;;;;;;42.55;28.35;;;8.60;99.90;;;;;;5016585;28;20230;-66
2023/04/09 01:44:11;;;;;;;39.97;26.90;;;8.50;99.90;;;;;;5013623;28;20030;-64
2023/04/09 01:46:39;;;;;;;40.15;27.38;;;8.50;99.90;;;;;;5037955;28;20466;-66
2023/04/09 01:49:05;;;;;;;42.17;27.10;;;8.60;99.90;;;;;;5004048;28;20551;-65
2023/04/09 01:51:32;;;;;;;42.15;26.15;;;8.50;99.90;;;;;;5031706;27;20043;-66
2023/04/09 01:53:58;;;;;;;42.85;26.00;;;8.50;99.90;;;;;;5135448;27;20114;-64
2023/04/09 01:56:24;;;;;;;41.75;25.67;;;8.60;99.90;;;;;;5136268;27;20043;-65
2023/04/09 01:58:51;;;;;;;39.28;26.73;;;8.60;99.90;;;;;;5142040;27;20413;-67
2023/04/09 02:01:25;;;;;;;40.90;26.33;;;8.50;99.90;;;;;;5113987;27;20637;-64
2023/04/09 02:03:55;;;;;;;37.50;25.10;;;8.50;99.90;;;;;;5132016;27;20039;-66
2023/04/09 02:06:42;;;;;;;40.22;24.85;;;8.60;99.90;;;;;;5091065;27;20080;-65
2023/04/09 02:09:09;;;;;;;37.47;25.17;;;8.50;99.90;;;;;;5123701;27;20568;-65
2023/04/09 02:11:39;;;;;;;38.10;24.70;;;8.50;99.90;;;;;;5133309;27;20590;-68
2023/04/09 02:14:07;;;;;;;42.35;27.35;;;8.50;99.90;;;;;;5103143;27;20082;-63
2023/04/09 02:16:33;;;;;;;42.15;26.65;;;8.50;99.90;;;;;;5104519;27;20055;-63
2023/04/09 02:19:00;;;;;;;36.75;25.90;;;8.50;99.90;;;;;;5106462;27;20433;-65
2023/04/09 02:21:27;;;;;;;39.75;25.25;;;8.50;99.90;;;;;;5107192;27;20101;-64
2023/04/09 02:23:54;;;;;;;39.63;26.05;;;8.50;99.90;;;;;;5146707;27;20058;-66
2023/04/09 02:26:20;;;;;;;41.88;26.15;;;8.50;99.90;;;;;;5130766;27;20043;-66
2023/04/09 02:28:46;;;;;;;39.50;24.85;;;8.50;99.90;;;;;;5106619;27;20039;-67
2023/04/09 02:31:11;;;;;;;38.97;25.05;;;8.50;99.90;;;;;;5137031;27;20042;-65
2023/04/09 02:33:37;;;;;;;37.15;24.67;;;8.50;99.90;;;;;;5136617;27;20642;-66
2023/04/09 02:36:04;;;;;;;41.33;26.13;;;8.50;99.90;;;;;;5104940;27;20095;-67
2023/04/09 02:38:30;;;;;;;36.28;25.08;;;8.50;99.90;;;;;;5104863;27;20058;-64
2023/04/09 02:40:55;;;;;;;37.95;25.10;;;8.50;99.90;;;;;;5136955;27;20047;-67
2023/04/09 02:43:21;;;;;;;35.15;24.85;;;8.50;99.90;;;;;;5123480;27;20046;-63
2023/04/09 02:45:47;;;;;;;41.17;24.13;;;8.50;99.90;;;;;;5135666;27;20035;-66
2023/04/09 02:48:12;;;;;;;37.15;25.63;;;8.50;99.90;;;;;;5117832;27;20567;-64
2023/04/09 02:50:38;;;;;;;38.83;24.48;;;8.40;99.90;;;;;;5136595;27;20118;-65
2023/04/09 02:53:04;;;;;;;37.90;24.98;;;8.40;99.90;;;;;;5135404;27;20042;-65
2023/04/09 02:55:29;;;;;;;38.33;24.67;;;8.40;99.90;;;;;;5125960;27;20035;-68
2023/04/09 02:57:55;;;;;;;43.10;26.08;;;8.40;99.90;;;;;;5105999;27;20046;-67
2023/04/09 03:00:21;;;;;;;38.15;24.70;;;8.40;99.90;;;;;;5105766;27;20049;-65
2023/04/09 03:02:46;;;;;;;40.60;26.05;;;8.40;99.90;;;;;;5105567;27;20478;-65
2023/04/09 03:05:12;;;;;;;41.13;25.73;;;8.40;99.90;;;;;;5105080;27;20131;-66
2023/04/09 03:07:38;;;;;;;42.05;27.23;;;8.40;99.90;;;;;;5105481;27;20507;-67
2023/04/09 03:10:04;;;;;;;42.55;26.63;;;8.30;99.90;;;;;;5104552;27;20047;-65
2023/04/09 03:12:29;;;;;;;42.25;26.60;;;8.30;99.90;;;;;;5137036;27;20027;-67
2023/04/09 03:14:55;;;;;;;37.65;24.95;;;8.30;99.90;;;;;;5135281;27;20046;-66
2023/04/09 03:17:23;;;;;;;35.75;24.48;;;8.30;99.90;;;;;;5137317;27;20042;-66
2023/04/09 03:19:49;;;;;;;39.50;26.13;;;8.30;99.90;;;;;;5135584;27;20041;-65
2023/04/09 03:22:15;;;;;;;42.42;26.75;;;8.30;99.90;;;;;;5121897;27;20042;-64
2023/04/09 03:24:40;;;;;;;38.90;25.63;;;8.30;99.90;;;;;;5104343;27;20402;-68
2023/04/09 03:27:06;;;;;;;43.25;26.63;;;8.30;99.90;;;;;;5122049;27;20039;-67
2023/04/09 03:29:32;;;;;;;43.20;27.80;;;8.30;99.90;;;;;;5137635;27;20065;-64
2023/04/09 03:31:57;;;;;;;38.17;25.50;;;8.30;99.90;;;;;;5122328;27;20042;-67
2023/04/09 03:34:23;;;;;;;39.03;26.20;;;8.30;99.90;;;;;;5136842;27;20036;-67
2023/04/09 03:36:49;;;;;;;42.30;25.88;;;8.30;99.90;;;;;;5123158;27;20524;-65
2023/04/09 03:39:14;;;;;;;42.42;26.33;;;8.30;99.90;;;;;;5106488;27;20130;-66
2023/04/09 03:41:40;;;;;;;45.55;27.58;;;8.30;99.90;;;;;;5138548;27;20165;-67
2023/04/09 03:44:06;;;;;;;43.33;26.92;;;8.30;99.90;;;;;;5139801;27;20645;-66
2023/04/09 03:46:31;;;;;;;41.25;27.17;;;8.30;99.90;;;;;;5138510;27;20043;-65
2023/04/09 03:48:57;;;;;;;40.40;26.02;;;8.30;99.90;;;;;;5111121;27;20420;-66
2023/04/09 03:51:23;;;;;;;39.33;25.98;;;8.40;99.90;;;;;;5109089;27;20552;-65
2023/04/09 03:53:48;;;;;;;40.90;26.83;;;8.40;99.90;;;;;;5109261;27;20043;-66
2023/04/09 03:56:14;;;;;;;43.38;27.40;;;8.40;99.90;;;;;;5103614;27;20055;-66
2023/04/09 03:58:39;;;;;;;41.00;26.65;;;8.30;99.90;;;;;;5139214;27;20050;-65
2023/04/09 04:01:05;;;;;;;44.78;27.13;;;8.40;99.90;;;;;;5107853;27;20047;-66
2023/04/09 04:03:31;;;;;;;41.38;27.13;;;8.40;99.90;;;;;;5126566;27;20490;-66
2023/04/09 04:06:01;;;;;;;41.35;27.90;;;8.30;99.90;;;;;;5118739;27;20043;-66
2023/04/09 04:08:27;;;;;;;38.40;26.65;;;8.30;99.90;;;;;;5109250;27;20035;-63
2023/04/09 04:10:53;;;;;;;40.88;26.85;;;8.30;99.90;;;;;;5107112;27;20060;-66
2023/04/09 04:13:19;;;;;;;39.03;27.23;;;8.30;99.90;;;;;;5108306;27;20134;-63
2023/04/09 04:15:44;;;;;;;38.75;25.77;;;8.30;99.90;;;;;;5148480;27;20031;-66
2023/04/09 04:18:10;;;;;;;44.20;28.55;;;8.30;99.90;;;;;;5131473;27;20065;-66
2023/04/09 04:20:37;;;;;;;43.97;28.13;;;8.30;99.90;;;;;;5093784;27;20490;-66
2023/04/09 04:23:03;;;;;;;40.83;28.42;;;8.30;99.90;;;;;;5140390;27;20044;-66
2023/04/09 04:25:30;;;;;;;40.97;26.55;;;8.30;99.90;;;;;;5127803;27;20062;-65
2023/04/09 04:27:56;;;;;;;41.97;27.67;;;8.30;99.90;;;;;;5126278;27;20050;-65
2023/04/09 04:30:22;;;;;;;38.60;26.50;;;8.30;99.90;;;;;;5143783;27;20067;-64
2023/04/09 04:32:48;;;;;;;42.17;27.88;;;8.30;99.90;;;;;;5090196;27;20039;-68
2023/04/09 04:35:14;;;;;;;42.88;27.33;;;8.20;99.90;;;;;;5114433;27;20035;-68
2023/04/09 04:37:39;;;;;;;40.55;27.13;;;8.20;99.90;;;;;;5127223;27;20039;-67
2023/04/09 04:40:06;;;;;;;40.83;26.90;;;8.20;99.90;;;;;;5127901;27;20072;-66
2023/04/09 04:42:33;;;;;;;45.38;27.27;;;8.20;99.90;;;;;;5107821;27;20039;-67
2023/04/09 04:44:59;;;;;;;39.38;26.05;;;8.20;99.90;;;;;;5139709;27;20032;-66
2023/04/09 04:47:24;;;;;;;38.80;25.25;;;8.20;99.90;;;;;;5112101;27;20039;-66
2023/04/09 04:49:50;;;;;;;37.28;24.60;;;8.20;99.90;;;;;;5108302;27;20489;-64
2023/04/09 04:52:16;;;;;;;38.53;25.65;;;8.20;99.90;;;;;;5148463;27;20047;-64
2023/04/09 04:54:42;;;;;;;40.10;25.02;;;8.20;99.90;;;;;;5105276;27;20045;-68
2023/04/09 04:57:08;;;;;;;36.13;24.33;;;8.20;99.90;;;;;;5108062;27;20047;-66
2023/04/09 04:59:37;;;;;;;38.75;25.75;;;8.20;99.90;;;;;;5138551;27;20031;-64
2023/04/09 05:02:03;;;;;;;41.78;26.95;;;8.20;99.90;;;;;;5107251;27;20039;-68
2023/04/09 05:04:29;;;;;;;43.20;28.10;;;8.20;99.90;;;;;;5126371;27;20383;-66
2023/04/09 05:06:55;;;;;;;43.45;26.90;;;8.10;99.90;;;;;;5110963;27;20394;-65
2023/04/09 05:09:20;;;;;;;42.10;26.63;;;8.10;99.90;;;;;;5110958;27;20035;-66
2023/04/09 05:11:46;;;;;;;41.40;26.77;;;8.00;99.90;;;;;;5137232;27;20553;-68
2023/04/09 05:14:12;;;;;;;42.35;27.02;;;8.00;99.90;;;;;;5144985;27;20085;-65
2023/04/09 05:16:37;;;;;;;45.05;27.30;;;8.00;99.90;;;;;;5131256;27;20031;-64
2023/04/09 05:19:03;;;;;;;40.63;26.05;;;8.10;99.90;;;;;;5113019;27;20490;-64
2023/04/09 05:21:29;;;;;;;40.63;27.63;;;8.00;99.90;;;;;;5133544;27;20043;-65
2023/04/09 05:23:54;;;;;;;44.97;26.85;;;8.10;99.90;;;;;;5136626;27;20058;-67
2023/04/09 05:26:21;;;;;;;42.05;26.90;;;8.10;99.90;;;;;;5108482;27;20036;-68
2023/04/09 05:28:47;;;;;;;40.03;27.77;;;8.10;99.90;;;;;;5108326;27;20035;-66
2023/04/09 05:31:14;;;;;;;43.97;28.05;;;8.10;99.90;;;;;;5136168;27;20401;-66
2023/04/09 05:33:40;;;;;;;42.00;27.40;;;8.10;99.90;;;;;;5137227;27;20117;-66
2023/04/09 05:36:06;;;;;;;41.63;27.52;;;8.10;99.90;;;;;;5132284;27;20047;-65
2023/04/09 05:38:32;;;;;;;44.28;27.48;;;8.10;99.90;;;;;;5108993;27;20042;-68
2023/04/09 05:40:58;;;;;;;40.28;27.50;;;8.10;99.90;;;;;;5111143;27;20039;-64
2023/04/09 05:43:23;;;;;;;39.67;26.13;;;8.10;99.90;;;;;;5107713;27;20043;-64
2023/04/09 05:45:49;;;;;;;41.70;26.98;;;8.10;99.90;;;;;;5110892;27;20497;-65
2023/04/09 05:48:17;;;;;;;41.95;27.58;;;8.10;99.90;;;;;;5133419;27;20043;-66
2023/04/09 05:50:49;;;;;;;41.63;26.80;;;8.10;99.90;;;;;;5133216;27;20077;-66
2023/04/09 05:53:15;;;;;;;40.97;26.40;;;8.10;99.90;;;;;;5109641;27;20051;-66
2023/04/09 05:55:40;;;;;;;36.20;24.27;;;8.10;99.90;;;;;;5118834;27;20038;-66
2023/04/09 05:58:06;;;;;;;38.28;25.88;;;8.10;99.90;;;;;;5108111;27;20043;-63
2023/04/09 06:00:32;;;;;;;39.58;26.40;;;8.10;99.90;;;;;;5139877;27;20035;-66
2023/04/09 06:02:57;;;;;;;40.50;26.95;;;8.10;99.90;;;;;;5109530;27;20120;-64
2023/04/09 06:05:23;;;;;;;37.88;25.17;;;8.20;99.90;;;;;;5119409;27;20506;-65
2023/04/09 06:07:49;;;;;;;40.55;25.00;;;8.10;99.90;;;;;;5107009;27;20405;-66
2023/04/09 06:10:14;;;;;;;41.00;25.98;;;8.20;99.90;;;;;;5137304;27;20058;-65
2023/04/09 06:12:40;;;;;;;39.78;26.58;;;8.20;99.90;;;;;;5111961;27;20409;-65
2023/04/09 06:15:06;;;;;;;38.20;26.15;;;8.20;99.90;;;;;;5096108;27;20047;-64
2023/04/09 06:17:32;;;;;;;41.25;27.15;;;8.20;99.90;;;;;;5111367;27;20397;-64
2023/04/09 06:19:57;;;;;;;39.13;25.70;;;8.20;99.90;;;;;;5140559;27;20446;-65
2023/04/09 06:22:23;;;;;;;38.65;24.77;;;8.20;99.90;;;;;;5135433;27;20070;-65
2023/04/09 06:24:48;;;;;;;36.65;24.88;;;8.20;99.90;;;;;;5121284;27;20050;-68
2023/04/09 06:27:14;;;;;;;37.53;25.10;;;8.20;99.90;;;;;;5109964;27;20051;-69
2023/04/09 06:29:40;;;;;;;40.42;25.40;;;8.30;99.90;;;;;;5089997;27;20051;-66
2023/04/09 06:32:05;;;;;;;37.45;24.70;;;8.30;99.90;;;;;;5134118;27;20054;-67
2023/04/09 06:34:31;;;;;;;38.08;24.92;;;8.30;99.90;;;;;;5127996;27;20043;-67
2023/04/09 06:36:56;;;;;;;36.53;24.42;;;8.30;99.90;;;;;;5130617;27;20039;-64
2023/04/09 06:39:22;;;;;;;35.35;24.40;;;8.40;99.90;;;;;;5135464;27;20054;-69
2023/04/09 06:41:48;;;;;;;34.55;23.67;;;8.30;99.90;;;;;;5138632;27;20046;-63
2023/04/09 06:44:13;;;;;;;38.28;26.58;;;8.40;99.90;;;;;;5094639;27;20054;-64
2023/04/09 06:46:39;;;;;;;37.20;25.65;;;8.40;99.90;;;;;;5104258;27;20051;-66
2023/04/09 06:49:05;;;;;;;38.03;25.42;;;8.40;99.90;;;;;;5134956;27;20062;-66
2023/04/09 06:51:30;;;;;;;36.25;25.52;;;8.40;99.90;;;;;;5127878;27;20185;-68
2023/04/09 06:53:56;;;;;;;40.92;27.15;;;8.40;99.90;;;;;;5130416;27;20045;-65
2023/04/09 06:56:22;;;;;;;35.65;24.42;;;8.50;99.90;;;;;;5110972;27;20498;-69
2023/04/09 06:58:47;;;;;;;37.30;26.45;;;8.50;99.90;;;;;;5111546;28;20031;-68
2023/04/09 07:01:13;;;;;;;40.53;27.33;;;8.50;99.90;;;;;;5106494;27;20083;-66
2023/04/09 07:03:39;;;;;;;39.45;26.38;;;8.50;99.90;;;;;;5139267;27;20088;-66
2023/04/09 07:06:05;;;;;;;36.00;24.13;;;8.60;99.90;;;;;;5110167;27;20093;-67
2023/04/09 07:08:30;;;;;;;35.58;23.95;;;8.60;99.90;;;;;;5129145;27;20036;-65
2023/04/09 07:10:56;;;;;;;36.97;24.65;;;8.60;99.90;;;;;;5107190;27;20058;-67
2023/04/09 07:13:22;;;;;;;36.60;25.02;;;8.60;99.90;;;;;;5112265;27;20050;-64
2023/04/09 07:15:47;;;;;;;36.40;24.33;;;8.60;99.90;;;;;;5140018;27;20039;-66
2023/04/09 07:18:13;;;;;;;34.40;23.55;;;8.70;99.90;;;;;;5111359;27;20043;-68
2023/04/09 07:20:39;;;;;;;33.10;24.10;;;8.70;99.90;;;;;;5110430;27;20071;-66
2023/04/09 07:23:05;;;;;;;31.45;23.65;;;8.80;99.90;;;;;;5111053;27;20042;-67
2023/04/09 07:25:31;;;;;;;33.85;23.80;;;8.80;99.90;;;;;;5129007;27;20051;-66
2023/04/09 07:27:57;;;;;;;37.47;25.40;;;8.90;99.90;;;;;;5126945;27;20443;-65
2023/04/09 07:30:22;;;;;;;35.42;24.13;;;8.90;99.90;;;;;;5144416;27;20051;-68
2023/04/09 07:32:48;;;;;;;37.22;25.65;;;8.80;99.90;;;;;;5110893;27;20042;-64
2023/04/09 07:35:14;;;;;;;36.72;24.23;;;8.90;99.90;;;;;;5134547;27;20046;-65
2023/04/09 07:37:39;;;;;;;37.13;24.70;;;8.90;99.90;;;;;;5088450;27;20649;-66
2023/04/09 07:40:07;;;;;;;34.20;24.20;;;8.90;99.90;;;;;;5106219;27;20031;-66
2023/04/09 07:42:33;;;;;;;34.42;24.40;;;8.90;99.90;;;;;;5131612;27;20046;-67
2023/04/09 07:44:59;;;;;;;38.30;25.95;;;8.90;99.90;;;;;;5131523;27;20043;-66
2023/04/09 07:47:25;;;;;;;34.42;24.00;;;8.90;99.90;;;;;;5105204;27;20065;-66
2023/04/09 07:49:51;;;;;;;35.53;23.75;;;9.00;99.90;;;;;;5109228;27;20043;-66
2023/04/09 07:52:18;;;;;;;33.63;23.23;;;9.00;99.90;;;;;;5109208;27;20054;-68
2023/04/09 07:54:44;;;;;;;33.55;23.90;;;9.00;99.90;;;;;;5110527;27;20051;-68
2023/04/09 07:57:09;;;;;;;36.53;25.25;;;8.90;99.90;;;;;;5109257;27;20046;-64
2023/04/09 07:59:35;;;;;;;36.28;24.67;;;9.00;99.90;;;;;;5110344;27;20035;-68
2023/04/09 08:02:01;;;;;;;35.00;24.42;;;8.90;99.90;;;;;;5109353;27;20489;-64
2023/04/09 08:04:27;;;;;;;34.10;24.40;;;9.00;99.90;;;;;;5111208;27;20422;-68
2023/04/09 08:06:53;;;;;;;34.55;23.35;;;9.00;99.90;;;;;;5111114;27;20134;-66
2023/04/09 08:09:20;;;;;;;31.80;22.63;;;9.10;99.90;;;;;;5129235;27;20042;-66
2023/04/09 08:11:46;;;;;;;32.75;22.77;;;9.10;99.90;;;;;;5108850;27;20043;-69
2023/04/09 08:14:13;;;;;;;31.95;22.75;;;9.20;99.90;;;;;;5130597;27;20133;-67
2023/04/09 08:16:44;;;;;;;31.92;22.38;;;9.20;99.90;;;;;;5127927;27;20046;-63
2023/04/09 08:19:10;;;;;;;43.42;27.45;;;9.30;99.90;;;;;;5142091;27;20124;-67
2023/04/09 08:21:43;;;;;;;34.60;24.67;;;9.40;99.90;;;;;;5114213;27;20046;-64
2023/04/09 08:24:10;;;;;;;31.23;22.00;;;9.50;99.90;;;;;;5144979;27;20083;-70
2023/04/09 08:26:40;;;;;;;30.17;22.40;;;9.50;99.90;;;;;;5110224;27;20051;-68
2023/04/09 08:29:06;;;;;;;31.52;22.90;;;9.50;99.90;;;;;;5123610;27;20035;-68
2023/04/09 08:31:32;;;;;;;30.80;22.35;;;9.60;99.90;;;;;;5114058;27;20389;-68
2023/04/09 08:33:58;;;;;;;34.30;22.15;;;9.60;99.90;;;;;;5110374;27;20031;-66
2023/04/09 08:36:25;;;;;;;33.58;23.27;;;9.80;99.90;;;;;;5131255;27;20024;-64
2023/04/09 08:38:53;;;;;;;31.02;22.52;;;9.90;99.90;;;;;;5115387;27;20400;-64
2023/04/09 08:41:20;;;;;;;31.15;22.13;;;9.90;99.90;;;;;;5113653;27;20067;-66
2023/04/09 08:43:47;;;;;;;29.83;21.25;;;10.00;99.90;;;;;;5115728;27;20039;-67
2023/04/09 08:46:15;;;;;;;30.13;22.65;;;10.10;99.90;;;;;;5113785;27;20513;-70
2023/04/09 08:48:44;;;;;;;30.08;22.20;;;10.20;99.90;;;;;;5114399;27;20046;-67
2023/04/09 08:51:20;;;;;;;32.45;23.80;;;10.30;99.90;;;;;;5111886;27;20043;-67
2023/04/09 08:53:49;;;;;;;32.45;22.85;;;10.30;99.90;;;;;;5144558;27;20035;-67
2023/04/09 08:56:15;;;;;;;31.85;22.63;;;10.50;99.90;;;;;;5094635;27;20126;-62
2023/04/09 08:58:43;;;;;;;32.47;22.83;;;10.70;99.90;;;;;;5142432;27;20430;-65
2023/04/09 09:01:23;;;;;;;30.88;22.13;;;11.00;99.90;;;;;;5113560;27;20039;-65
2023/04/09 09:03:55;;;;;;;29.88;21.88;;;11.40;99.90;;;;;;5110623;27;20039;-68
2023/04/09 09:06:28;;;;;;;32.75;23.38;;;11.60;99.90;;;;;;5108178;27;20035;-69
2023/04/09 09:09:02;;;;;;;28.77;21.55;;;11.80;99.90;;;;;;5137470;27;20035;-66
2023/04/09 09:11:29;;;;;;;29.13;21.50;;;12.10;99.90;;;;;;5105506;27;20043;-67
2023/04/09 09:14:03;;;;;;;30.50;21.55;;;12.30;99.90;;;;;;5125342;27;20035;-65
2023/04/09 09:16:30;;;;;;;31.30;22.30;;;12.30;99.90;;;;;;5127066;27;20042;-69
2023/04/09 09:18:55;;;;;;;30.83;22.00;;;12.40;99.90;;;;;;5145615;27;20042;-68
2023/04/09 09:21:22;;;;;;;30.92;22.15;;;12.70;99.90;;;;;;5095368;27;20039;-65
2023/04/09 09:23:49;;;;;;;28.73;21.02;;;12.90;99.90;;;;;;5107843;27;20753;-66
2023/04/09 09:26:17;;;;;;;28.42;21.60;;;13.20;99.90;;;;;;5108632;27;20055;-66
2023/04/09 09:28:44;;;;;;;28.55;21.05;;;13.60;99.90;;;;;;5111341;27;20043;-66
2023/04/09 09:31:11;;;;;;;26.48;20.05;;;14.00;99.90;;;;;;5147125;27;20046;-65
2023/04/09 09:33:37;;;;;;;27.75;20.77;;;14.00;99.90;;;;;;5127306;27;20485;-68
2023/04/09 09:36:03;;;;;;;27.65;19.25;;;14.10;99.90;;;;;;5149343;27;20119;-66
2023/04/09 09:38:29;;;;;;;28.52;20.60;;;14.10;99.90;;;;;;5132726;27;20106;-66
2023/04/09 09:40:55;;;;;;;27.55;20.83;;;14.40;99.90;;;;;;5106372;27;20489;-66
2023/04/09 09:43:21;;;;;;;26.08;18.88;;;14.60;99.90;;;;;;5142617;27;20049;-62
2023/04/09 09:45:48;;;;;;;27.83;20.77;;;14.70;99.90;;;;;;5096701;27;20039;-68
2023/04/09 09:48:14;;;;;;;32.92;20.63;;;14.70;99.90;;;;;;5111739;27;21303;-67
2023/04/09 09:50:41;;;;;;;27.95;20.27;;;14.80;99.90;;;;;;5112206;27;20397;-67
2023/04/09 09:53:08;;;;;;;25.63;19.02;;;14.90;99.90;;;;;;5114944;27;20044;-64
2023/04/09 09:55:39;;;;;;;26.33;19.58;;;15.30;99.90;;;;;;5109169;27;20087;-66
2023/04/09 09:58:15;;;;;;;24.67;17.80;;;15.60;99.90;;;;;;5112269;27;20414;-69
2023/04/09 10:00:42;;;;;;;24.55;18.02;;;15.70;99.90;;;;;;5111964;27;20062;-68
2023/04/09 10:03:20;;;;;;;27.65;18.65;;;15.70;99.90;;;;;;5112465;27;20047;-66
2023/04/09 10:05:48;;;;;;;24.30;18.27;;;15.60;99.90;;;;;;5111575;27;20039;-65
2023/04/09 10:08:14;;;;;;;25.55;19.08;;;15.40;99.90;;;;;;5090630;27;20114;-68
2023/04/09 10:10:41;;;;;;;27.05;19.85;;;15.70;99.90;;;;;;5152706;27;20038;-67
2023/04/09 10:13:12;;;;;;;23.88;17.15;;;16.00;99.90;;;;;;5110769;27;20152;-66
2023/04/09 10:15:39;;;;;;;24.38;17.42;;;16.10;99.90;;;;;;5139669;27;20108;-66
2023/04/09 10:18:05;;;;;;;25.30;18.52;;;15.70;99.90;;;;;;5112781;27;20042;-65
2023/04/09 10:20:42;;;;;;;25.83;18.88;;;15.30;99.90;;;;;;5095107;27;20048;-65
2023/04/09 10:23:23;;;;;;;24.33;18.90;;;15.10;99.90;;;;;;5111263;27;20051;-69
2023/04/09 10:25:49;;;;;;;25.27;19.10;;;15.10;99.90;;;;;;5147381;27;20042;-68
2023/04/09 10:28:17;;;;;;;24.55;19.20;;;15.20;99.90;;;;;;5092775;27;20055;-66
2023/04/09 10:30:43;;;;;;;25.58;18.98;;;15.20;99.90;;;;;;5142681;27;20494;-65
2023/04/09 10:33:15;;;;;;;26.00;19.00;;;15.60;99.90;;;;;;5111165;27;20122;-68
2023/04/09 10:35:42;;;;;;;24.67;18.98;;;15.80;99.90;;;;;;5098752;27;20070;-65
2023/04/09 10:38:09;;;;;;;24.60;18.52;;;15.50;99.90;;;;;;5097065;27;20064;-67
2023/04/09 10:40:41;;;;;;;24.95;18.15;;;15.20;99.90;;;;;;5142230;27;20083;-66
2023/04/09 10:43:08;;;;;;;25.27;18.63;;;15.00;99.90;;;;;;5109591;27;20524;-64
2023/04/09 10:45:41;;;;;;;26.00;18.63;;;14.90;99.90;;;;;;5110080;27;20039;-68
2023/04/09 10:48:10;;;;;;;;;;;14.90;99.90;;;;;;5112059;27;20078;-67
2023/04/09 10:50:37;;;;;;;29.75;18.70;;;15.10;99.90;;;;;;5121257;27;19923;-65
2023/04/09 10:53:03;;;;;;;26.88;19.50;;;15.30;99.90;;;;;;5084322;27;20043;-68
2023/04/09 10:55:49;;;;;;;26.80;18.40;;;15.30;99.90;;;;;;5103906;27;20462;-69
2023/04/09 10:58:15;;;;;;;24.77;17.70;;;15.20;99.90;;;;;;5110528;27;20411;-70
2023/04/09 11:00:46;;;;;;;23.58;17.42;;;15.00;99.90;;;;;;5129944;27;20047;-67
2023/04/09 11:03:21;;;;;;;22.88;16.92;;;14.80;99.90;;;;;;5129031;27;20027;-67
2023/04/09 11:06:06;;;;;;;25.08;18.58;;;14.70;99.90;;;;;;5149252;27;20027;-68
2023/04/09 11:08:33;;;;;;;25.42;18.35;;;14.70;99.90;;;;;;5109361;27;20047;-65
2023/04/09 11:11:00;;;;;;;24.27;17.80;;;14.60;99.90;;;;;;5143083;27;20477;-66
2023/04/09 11:13:27;;;;;;;25.50;17.98;;;14.80;99.90;;;;;;5109769;27;20425;-69
2023/04/09 11:15:54;;;;;;;24.67;18.52;;;14.80;99.90;;;;;;5127857;27;20096;-67
2023/04/09 11:18:28;;;;;;;24.02;18.55;;;14.70;99.90;;;;;;5109896;27;20489;-67
2023/04/09 11:20:59;;;;;;;23.30;18.17;;;14.50;99.90;;;;;;5142364;27;20049;-66
2023/04/09 11:23:25;;;;;;;24.67;18.52;;;14.80;99.90;;;;;;5111628;27;20051;-69
2023/04/09 11:25:52;;;;;;;23.75;18.05;;;15.00;99.90;;;;;;5110123;27;20078;-65
2023/04/09 11:28:19;;;;;;;25.45;18.52;;;15.50;99.90;;;;;;5111152;27;20449;-65
2023/04/09 11:30:48;;;;;;;24.02;18.38;;;15.60;99.90;;;;;;5111054;27;20046;-65
2023/04/09 11:33:14;;;;;;;22.05;17.08;;;15.40;99.90;;;;;;5111322;27;20047;-67
2023/04/09 11:35:40;;;;;;;23.08;17.23;;;15.60;99.90;;;;;;5110586;27;20042;-66
2023/04/09 11:38:10;;;;;;;24.35;17.48;;;16.00;99.90;;;;;;5111335;27;20050;-65
2023/04/09 11:40:42;;;;;;;21.17;16.92;;;16.00;99.90;;;;;;5113605;27;20102;-63
2023/04/09 11:43:08;;;;;;;22.38;16.17;;;15.90;99.90;;;;;;5127767;27;20426;-66
2023/04/09 11:45:33;;;;;;;21.95;17.23;;;15.80;99.90;;;;;;5110267;27;20172;-67
2023/04/09 11:48:00;;;;;;;22.48;17.33;;;15.80;99.80;;;;;;5111449;27;20031;-70
2023/04/09 11:50:26;;;;;;;23.23;17.52;;;15.70;99.90;;;;;;5095980;27;20059;-67
2023/04/09 11:52:52;;;;;;;22.00;16.67;;;15.50;99.80;;;;;;5108389;27;20054;-66
2023/04/09 11:55:28;;;;;;;21.60;17.20;;;15.40;99.90;;;;;;5093776;27;20050;-65
2023/04/09 11:57:59;;;;;;;21.85;16.95;;;15.20;99.90;;;;;;5130507;27;20039;-69
2023/04/09 12:00:26;;;;;;;21.00;16.35;;;15.40;99.90;;;;;;5094741;27;20058;-67
2023/04/09 12:03:03;;;;;;;19.73;14.25;;;15.50;99.90;;;;;;5131877;27;20039;-67
2023/04/09 12:05:33;;;;;;;18.45;14.60;;;15.90;99.90;;;;;;5113925;27;20504;-66
2023/04/09 12:08:01;;;;;;;19.15;15.05;;;16.10;98.00;;;;;;5112817;27;20485;-68
2023/04/09 12:10:34;;;;;;;18.23;14.00;;;16.00;98.50;;;;;;5112721;27;20446;-66
2023/04/09 12:13:09;;;;;;;17.42;14.05;;;16.00;97.70;;;;;;5113050;27;20087;-66
2023/04/09 12:15:37;;;;;;;17.50;13.48;;;16.00;97.30;;;;;;5114757;27;20051;-68
2023/04/09 12:18:06;;;;;;;20.33;14.95;;;15.90;97.20;;;;;;5114419;27;20046;-68
2023/04/09 12:20:34;;;;;;;20.23;14.98;;;16.20;98.20;;;;;;5113430;27;20387;-66
2023/04/09 12:23:02;;;;;;;17.23;14.35;;;16.60;98.20;;;;;;5112170;27;20038;-65
2023/04/09 12:25:30;;;;;;;16.67;12.10;;;17.00;97.30;;;;;;5095527;27;20042;-65
2023/04/09 12:27:56;;;;;;;16.50;12.77;;;17.20;95.10;;;;;;5111645;27;20047;-68
2023/04/09 12:30:23;;;;;;;17.85;12.45;;;17.40;94.40;;;;;;5152540;27;20039;-67
2023/04/09 12:32:49;;;;;;;16.83;12.52;;;17.30;94.40;;;;;;5114728;27;20035;-68
2023/04/09 12:35:14;;;;;;;16.70;13.38;;;17.40;93.90;;;;;;5114175;27;20043;-67